createdAt,value
2022-11-04T00:01:50.387Z,1.27
2022-11-04T00:04:18.962Z,1.60
2022-11-04T00:06:46.698Z,1.20
2022-11-04T00:09:17.379Z,1.70
2022-11-04T00:11:44.964Z,1.30
2022-11-04T00:14:13.122Z,1.50
2022-11-04T00:16:40.963Z,1.70
2022-11-04T00:19:08.570Z,2.90
2022-11-04T00:21:36.149Z,1.90
2022-11-04T00:24:03.701Z,1.70
2022-11-04T00:26:31.178Z,3.33
2022-11-04T00:28:58.745Z,1.77
2022-11-04T00:31:26.233Z,3.60
2022-11-04T00:33:54.873Z,1.70
2022-11-04T00:36:23.706Z,2.00
2022-11-04T00:38:51.310Z,2.53
2022-11-04T00:41:18.928Z,2.13
2022-11-04T00:43:46.390Z,2.50
2022-11-04T00:46:13.915Z,2.43
2022-11-04T00:48:41.531Z,4.40
2022-11-04T00:51:09.049Z,2.30
2022-11-04T00:53:36.547Z,2.40
2022-11-04T00:56:04.125Z,3.63
2022-11-04T00:58:31.612Z,3.50
2022-11-04T01:00:59.217Z,3.93
2022-11-04T01:03:26.808Z,2.97
2022-11-04T01:05:54.307Z,3.13
2022-11-04T01:08:21.739Z,5.40
2022-11-04T01:10:49.261Z,3.13
2022-11-04T01:13:16.711Z,3.10
2022-11-04T01:15:44.322Z,3.30
2022-11-04T01:18:11.739Z,3.77
2022-11-04T01:20:39.224Z,3.57
2022-11-04T01:23:06.795Z,3.43
2022-11-04T01:25:34.306Z,4.00
2022-11-04T01:28:01.806Z,4.97
2022-11-04T01:30:29.314Z,3.20
2022-11-04T01:32:56.913Z,3.73
2022-11-04T01:35:24.436Z,6.20
2022-11-04T01:37:51.893Z,4.37
2022-11-04T01:40:19.435Z,5.50
2022-11-04T01:42:47.024Z,4.77
2022-11-04T01:45:15.369Z,5.17
2022-11-04T01:47:45.374Z,3.77
2022-11-04T01:50:18.032Z,5.00
2022-11-04T01:52:51.475Z,4.50
2022-11-04T01:55:24.310Z,7.40
2022-11-04T01:57:53.524Z,5.17
2022-11-04T02:00:21.079Z,4.83
2022-11-04T02:02:54.414Z,4.17
2022-11-04T02:05:22.121Z,4.30
2022-11-04T02:07:51.241Z,6.37
2022-11-04T02:10:20.783Z,5.70
2022-11-04T02:12:49.526Z,6.40
2022-11-04T02:15:24.222Z,3.97
2022-11-04T02:18:01.274Z,4.70
2022-11-04T02:20:44.997Z,5.90
2022-11-04T02:23:12.458Z,5.40
2022-11-04T02:25:43.038Z,4.87
2022-11-04T02:28:19.635Z,7.47
2022-11-04T02:30:55.970Z,4.53
2022-11-04T02:33:26.894Z,7.60
2022-11-04T02:35:54.345Z,7.70
2022-11-04T02:38:38.591Z,7.33
2022-11-04T02:41:06.103Z,6.50
2022-11-04T02:43:42.507Z,6.33
2022-11-04T02:46:22.004Z,7.97
2022-11-04T02:49:01.940Z,3.70
2022-11-04T02:51:36.315Z,4.83
2022-11-04T02:54:10.224Z,2.23
2022-11-04T02:56:40.698Z,8.40
2022-11-04T02:59:14.264Z,7.50
2022-11-04T03:01:43.862Z,4.33
2022-11-04T03:04:14.172Z,6.57
2022-11-04T03:06:43.210Z,4.90
2022-11-04T03:09:12.458Z,2.63
2022-11-04T03:11:41.349Z,5.43
2022-11-04T03:14:11.223Z,5.17
2022-11-04T03:16:44.931Z,6.53
2022-11-04T03:19:18.203Z,4.47
2022-11-04T03:21:53.903Z,5.07
2022-11-04T03:24:21.558Z,3.20
2022-11-04T03:27:03.687Z,4.30
2022-11-04T03:29:35.955Z,8.87
2022-11-04T03:32:23.493Z,6.40
2022-11-04T03:34:51.460Z,7.03
2022-11-04T03:37:18.981Z,6.30
2022-11-04T03:39:46.731Z,4.40
2022-11-04T03:42:14.901Z,10.50
2022-11-04T03:44:42.507Z,5.90
2022-11-04T03:47:09.984Z,7.07
2022-11-04T03:49:37.489Z,4.73
2022-11-04T03:52:05.026Z,2.67
2022-11-04T03:54:32.543Z,5.47
2022-11-04T03:57:06.006Z,4.30
2022-11-04T03:59:58.537Z,4.43
2022-11-04T04:02:49.259Z,2.73
2022-11-04T04:05:39.489Z,6.50
2022-11-04T04:08:16.293Z,6.97
2022-11-04T04:10:50.078Z,5.00
2022-11-04T04:13:20.672Z,7.93
2022-11-04T04:15:48.186Z,5.30
2022-11-04T04:18:17.726Z,7.53
2022-11-04T04:20:46.113Z,5.23
2022-11-04T04:23:19.166Z,11.23
2022-11-04T04:25:46.767Z,8.10
2022-11-04T04:28:15.522Z,10.47
2022-11-04T04:30:44.322Z,4.63
2022-11-04T04:33:13.806Z,7.93
2022-11-04T04:35:44.535Z,11.17
2022-11-04T04:38:20.675Z,9.07
2022-11-04T04:40:51.555Z,7.53
2022-11-04T04:43:19.055Z,9.37
2022-11-04T04:45:50.759Z,6.50
2022-11-04T04:48:18.395Z,6.67
2022-11-04T04:50:47.467Z,6.67
2022-11-04T04:53:15.126Z,8.20
2022-11-04T04:55:42.599Z,8.10
2022-11-04T04:58:10.276Z,14.33
2022-11-04T05:00:38.164Z,8.60
2022-11-04T05:03:05.791Z,4.80
2022-11-04T05:05:33.376Z,10.87
2022-11-04T05:08:08.042Z,7.13
2022-11-04T05:10:35.904Z,5.67
2022-11-04T05:13:03.359Z,9.30
2022-11-04T05:15:30.938Z,5.67
2022-11-04T05:17:59.719Z,5.47
2022-11-04T05:20:27.739Z,7.67
2022-11-04T05:22:55.627Z,6.60
2022-11-04T05:25:23.091Z,11.80
2022-11-04T05:27:50.570Z,5.57
2022-11-04T05:30:18.150Z,7.40
2022-11-04T05:32:45.601Z,5.63
2022-11-04T05:35:13.136Z,6.30
2022-11-04T05:37:40.639Z,12.97
2022-11-04T05:40:08.471Z,6.37
2022-11-04T05:42:35.949Z,7.83
2022-11-04T05:45:04.087Z,8.17
2022-11-04T05:47:31.547Z,10.73
2022-11-04T05:49:59.248Z,8.13
2022-11-04T05:52:26.746Z,5.20
2022-11-04T05:54:54.204Z,7.47
2022-11-04T05:57:21.692Z,7.13
2022-11-04T05:59:49.256Z,5.23
2022-11-04T06:02:16.835Z,5.73
2022-11-04T06:04:44.428Z,4.00
2022-11-04T06:07:11.860Z,6.47
2022-11-04T06:09:39.430Z,9.13
2022-11-04T06:12:06.965Z,8.73
2022-11-04T06:14:34.471Z,10.23
2022-11-04T06:17:02.066Z,10.77
2022-11-04T06:19:29.634Z,8.10
2022-11-04T06:21:57.108Z,4.77
2022-11-04T06:24:24.655Z,6.53
2022-11-04T06:26:52.139Z,7.13
2022-11-04T06:29:19.690Z,6.33
2022-11-04T06:31:47.323Z,5.17
2022-11-04T06:34:14.830Z,8.60
2022-11-04T06:36:42.335Z,8.23
2022-11-04T06:39:09.917Z,7.30
2022-11-04T06:41:37.751Z,9.70
2022-11-04T06:44:05.291Z,7.10
2022-11-04T06:46:37.630Z,9.10
2022-11-04T06:49:10.515Z,5.57
2022-11-04T06:51:38.228Z,8.70
2022-11-04T06:54:06.016Z,5.20
2022-11-04T06:56:33.634Z,6.40
2022-11-04T06:59:01.144Z,4.47
2022-11-04T07:01:30.375Z,9.93
2022-11-04T07:03:59.111Z,7.63
2022-11-04T07:06:27.345Z,5.43
2022-11-04T07:08:54.855Z,9.13
2022-11-04T07:11:22.795Z,6.70
2022-11-04T07:13:50.554Z,8.23
2022-11-04T07:16:18.575Z,10.57
2022-11-04T07:18:46.115Z,14.10
2022-11-04T07:21:13.645Z,5.77
2022-11-04T07:23:41.083Z,5.90
2022-11-04T07:26:09.529Z,6.03
2022-11-04T07:28:37.382Z,6.43
2022-11-04T07:31:05.958Z,8.93
2022-11-04T07:33:33.853Z,9.40
2022-11-04T07:36:05.446Z,4.50
2022-11-04T07:38:33.130Z,9.80
2022-11-04T07:41:00.731Z,9.87
2022-11-04T07:43:28.246Z,11.27
2022-11-04T07:46:06.329Z,9.27
2022-11-04T07:48:33.818Z,7.77
2022-11-04T07:51:01.720Z,5.87
2022-11-04T07:53:30.132Z,8.30
2022-11-04T07:55:58.030Z,10.67
2022-11-04T07:58:25.769Z,8.47
2022-11-04T08:01:03.055Z,7.57
2022-11-04T08:03:30.677Z,11.40
2022-11-04T08:05:59.316Z,7.33
2022-11-04T08:08:27.640Z,8.47
2022-11-04T08:10:59.485Z,7.53
2022-11-04T08:13:31.050Z,8.40
2022-11-04T08:16:01.769Z,7.27
2022-11-04T08:18:29.539Z,12.07
2022-11-04T08:20:57.118Z,7.73
2022-11-04T08:23:24.659Z,11.27
2022-11-04T08:25:52.299Z,8.33
2022-11-04T08:28:19.858Z,15.17
2022-11-04T08:30:58.259Z,9.87
2022-11-04T08:33:26.372Z,8.97
2022-11-04T08:35:54.677Z,5.10
2022-11-04T08:38:22.560Z,9.10
2022-11-04T08:40:51.074Z,9.30
2022-11-04T08:43:22.976Z,3.83
2022-11-04T08:45:50.578Z,8.90
2022-11-04T08:48:18.292Z,8.10
2022-11-04T08:50:49.524Z,13.03
2022-11-04T08:53:25.782Z,6.93
2022-11-04T08:55:53.366Z,7.50
2022-11-04T08:58:20.836Z,8.80
2022-11-04T09:00:48.379Z,6.03
2022-11-04T09:03:16.462Z,8.20
2022-11-04T09:05:43.976Z,5.37
2022-11-04T09:08:18.396Z,6.47
2022-11-04T09:10:47.223Z,8.70
2022-11-04T09:13:15.620Z,7.67
2022-11-04T09:15:43.640Z,7.83
2022-11-04T09:18:11.233Z,5.33
2022-11-04T09:20:38.695Z,5.17
2022-11-04T09:23:07.981Z,12.27
2022-11-04T09:25:36.039Z,7.23
2022-11-04T09:28:03.603Z,4.60
2022-11-04T09:30:31.128Z,7.00
2022-11-04T09:32:58.929Z,9.13
2022-11-04T09:35:26.709Z,7.77
2022-11-04T09:37:54.606Z,6.13
2022-11-04T09:40:24.060Z,9.90
2022-11-04T09:43:14.992Z,14.27
2022-11-04T09:45:44.429Z,8.85
2022-11-04T09:48:23.013Z,9.57
2022-11-04T09:50:55.841Z,10.77
2022-11-04T09:53:41.557Z,12.07
2022-11-04T09:56:14.443Z,9.20
2022-11-04T09:58:45.307Z,8.32
2022-11-04T10:01:16.020Z,7.90
2022-11-04T10:03:43.803Z,8.40
2022-11-04T10:06:23.332Z,5.20
2022-11-04T10:09:02.314Z,6.53
2022-11-04T10:11:31.823Z,9.07
2022-11-04T10:14:12.916Z,8.63
2022-11-04T10:17:02.746Z,6.57
2022-11-04T10:20:18.416Z,8.40
2022-11-04T10:22:56.305Z,7.70
2022-11-04T10:25:26.113Z,6.57
2022-11-04T10:27:53.693Z,6.47
2022-11-04T10:30:22.533Z,9.47
2022-11-04T10:33:05.867Z,9.47
2022-11-04T10:35:42.997Z,7.57
2022-11-04T10:38:22.704Z,5.47
2022-11-04T10:40:54.658Z,4.50
2022-11-04T10:43:26.957Z,8.43
2022-11-04T10:46:04.107Z,9.60
2022-11-04T10:48:36.798Z,8.27
2022-11-04T10:51:05.471Z,6.63
2022-11-04T10:53:33.627Z,6.63
2022-11-04T10:56:24.249Z,6.23
2022-11-04T10:58:53.566Z,4.77
2022-11-04T11:01:34.649Z,10.20
2022-11-04T11:04:06.660Z,8.93
2022-11-04T11:06:35.679Z,6.13
2022-11-04T11:09:12.365Z,9.40
2022-11-04T11:11:40.002Z,8.50
2022-11-04T11:14:15.862Z,9.00
2022-11-04T11:16:43.513Z,8.03
2022-11-04T11:19:22.218Z,10.63
2022-11-04T11:21:57.010Z,6.60
2022-11-04T11:24:25.867Z,6.77
2022-11-04T11:26:57.860Z,6.87
2022-11-04T11:29:30.279Z,4.77
2022-11-04T11:31:59.221Z,4.30
2022-11-04T11:34:32.864Z,10.13
2022-11-04T11:37:01.240Z,9.13
2022-11-04T11:39:30.975Z,8.07
2022-11-04T11:41:58.605Z,14.70
2022-11-04T11:44:52.259Z,8.03
2022-11-04T11:47:22.574Z,7.43
2022-11-04T11:50:08.831Z,9.33
2022-11-04T11:52:37.248Z,7.03
2022-11-04T11:55:22.173Z,5.87
2022-11-04T12:01:06.865Z,5.43
2022-11-04T12:09:46.739Z,6.70
2022-11-04T12:12:17.349Z,10.10
2022-11-04T12:15:04.128Z,6.40
2022-11-04T12:17:32.156Z,7.97
2022-11-04T12:20:18.500Z,4.93
2022-11-04T12:26:24.800Z,8.93
2022-11-04T12:29:10.931Z,9.63
2022-11-04T12:31:43.807Z,9.10
2022-11-04T12:34:34.989Z,9.50
2022-11-04T12:37:15.284Z,4.60
2022-11-04T12:39:42.895Z,10.13
2022-11-04T12:42:33.051Z,8.87
2022-11-04T12:45:09.737Z,10.27
2022-11-04T12:47:56.016Z,5.87
2022-11-04T12:50:42.453Z,9.97
2022-11-04T12:53:28.361Z,10.07
2022-11-04T12:56:02.033Z,8.43
2022-11-04T12:58:41.569Z,7.87
2022-11-04T13:01:15.503Z,3.90
2022-11-04T13:03:47.142Z,8.53
2022-11-04T13:06:20.250Z,6.50
2022-11-04T13:08:47.698Z,8.93
2022-11-04T13:11:20.725Z,8.47
2022-11-04T13:13:50.289Z,8.07
2022-11-04T13:16:17.900Z,13.37
2022-11-04T13:18:45.944Z,12.03
2022-11-04T13:21:22.533Z,5.33
2022-11-04T13:23:57.448Z,9.93
2022-11-04T13:26:25.321Z,8.67
2022-11-04T13:29:02.954Z,11.87
2022-11-04T13:31:36.784Z,11.30
2022-11-04T13:34:23.108Z,7.63
2022-11-04T13:37:00.314Z,7.77
2022-11-04T13:39:34.909Z,7.53
2022-11-04T13:45:21.112Z,10.87
2022-11-04T13:47:50.204Z,10.27
2022-11-04T13:50:33.593Z,12.50
2022-11-04T13:53:01.212Z,8.47
2022-11-04T13:55:28.791Z,12.63
2022-11-04T13:57:56.374Z,9.43
2022-11-04T14:00:25.156Z,8.80
2022-11-04T14:02:54.052Z,9.70
2022-11-04T14:05:24.718Z,11.33
2022-11-04T14:08:01.181Z,8.33
2022-11-04T14:10:44.073Z,10.20
2022-11-04T14:13:27.018Z,6.10
2022-11-04T14:16:00.706Z,11.07
2022-11-04T14:18:38.916Z,13.90
2022-11-04T14:21:06.482Z,7.30
2022-11-04T14:23:34.285Z,9.47
2022-11-04T14:26:03.309Z,7.13
2022-11-04T14:28:31.593Z,9.30
2022-11-04T14:31:00.439Z,10.00
2022-11-04T14:33:42.269Z,13.07
2022-11-04T14:36:21.828Z,6.83
2022-11-04T14:39:09.651Z,10.80
2022-11-04T14:41:40.347Z,7.60
2022-11-04T14:44:10.120Z,8.30
2022-11-04T14:46:44.329Z,9.10
2022-11-04T14:49:29.056Z,9.07
2022-11-04T14:51:56.898Z,6.53
2022-11-04T14:54:30.318Z,12.40
2022-11-04T14:57:17.643Z,6.30
2022-11-04T15:00:20.933Z,11.97
2022-11-04T15:02:48.685Z,13.37
2022-11-04T15:08:41.489Z,7.27
2022-11-04T15:11:16.857Z,9.47
2022-11-04T15:13:44.886Z,11.07
2022-11-04T15:16:31.136Z,12.17
2022-11-04T15:19:00.878Z,10.90
2022-11-04T15:21:28.647Z,10.33
2022-11-04T15:23:56.656Z,10.27
2022-11-04T15:26:30.060Z,12.90
2022-11-04T15:28:59.601Z,10.30
2022-11-04T15:31:31.027Z,13.30
2022-11-04T15:34:13.170Z,11.30
2022-11-04T15:36:42.922Z,14.43
2022-11-04T15:39:18.389Z,13.80
2022-11-04T15:41:46.693Z,17.37
2022-11-04T15:44:18.882Z,15.73
2022-11-04T15:46:48.560Z,16.53
2022-11-04T15:49:21.472Z,14.90
2022-11-04T15:51:49.306Z,12.90
2022-11-04T15:54:16.762Z,15.87
2022-11-04T15:56:48.908Z,14.20
2022-11-04T15:59:17.981Z,17.27
2022-11-04T16:01:46.790Z,11.40
2022-11-04T16:04:15.916Z,13.47
2022-11-04T16:06:44.923Z,13.77
2022-11-04T16:09:24.206Z,10.87
2022-11-04T16:12:05.369Z,15.57
2022-11-04T16:14:33.031Z,14.97
2022-11-04T16:17:00.632Z,15.63
2022-11-04T16:19:29.153Z,17.23
2022-11-04T16:22:01.011Z,16.47
2022-11-04T16:24:32.140Z,22.13
2022-11-04T16:26:59.941Z,20.37
2022-11-04T16:29:32.722Z,18.43
2022-11-04T16:32:20.036Z,15.60
2022-11-04T16:34:49.566Z,18.93
2022-11-04T16:37:18.737Z,19.37
2022-11-04T16:39:46.923Z,16.33
2022-11-04T16:42:15.203Z,22.03
2022-11-04T16:44:52.965Z,19.10
2022-11-04T16:47:20.596Z,17.37
2022-11-04T16:49:48.102Z,16.63
2022-11-04T16:52:19.466Z,18.67
2022-11-04T16:54:49.844Z,14.13
2022-11-04T16:57:17.543Z,13.83
2022-11-04T16:59:45.293Z,15.60
2022-11-04T17:02:18.769Z,14.30
2022-11-04T17:04:46.572Z,17.87
2022-11-04T17:07:15.552Z,12.17
2022-11-04T17:09:43.266Z,14.07
2022-11-04T17:12:10.797Z,21.33
2022-11-04T17:14:38.477Z,16.93
2022-11-04T17:17:06.062Z,19.50
2022-11-04T17:19:34.957Z,15.83
2022-11-04T17:22:03.965Z,13.23
2022-11-04T17:24:31.558Z,15.73
2022-11-04T17:26:59.394Z,14.90
2022-11-04T17:29:32.163Z,19.43
2022-11-04T17:32:00.007Z,17.80
2022-11-04T17:34:30.170Z,18.40
2022-11-04T17:36:57.804Z,14.37
2022-11-04T17:39:25.589Z,16.37
2022-11-04T17:41:53.193Z,18.87
2022-11-04T17:44:22.282Z,19.47
2022-11-04T17:46:49.915Z,14.33
2022-11-04T17:49:18.845Z,15.30
2022-11-04T17:51:48.231Z,21.60
2022-11-04T17:54:16.139Z,15.93
2022-11-04T17:56:43.892Z,18.77
2022-11-04T17:59:12.887Z,17.63
2022-11-04T18:01:41.389Z,18.73
2022-11-04T18:04:12.606Z,18.97
2022-11-04T18:06:40.150Z,19.53
2022-11-04T18:09:07.998Z,19.97
2022-11-04T18:11:35.640Z,20.33
2022-11-04T18:14:03.348Z,17.30
2022-11-04T18:16:30.835Z,16.90
2022-11-04T18:18:59.105Z,18.57
2022-11-04T18:21:27.399Z,22.43
2022-11-04T18:23:58.154Z,24.83
2022-11-04T18:26:26.227Z,18.97
2022-11-04T18:28:53.742Z,21.67
2022-11-04T18:31:24.619Z,20.70
2022-11-04T18:33:52.528Z,25.77
2022-11-04T18:36:20.181Z,26.93
2022-11-04T18:38:48.089Z,26.93
2022-11-04T18:41:15.627Z,21.80
2022-11-04T18:43:43.254Z,22.73
2022-11-04T18:46:14.861Z,27.50
2022-11-04T18:48:42.988Z,22.13
2022-11-04T18:51:13.324Z,23.07
2022-11-04T18:53:40.966Z,20.33
2022-11-04T18:56:09.869Z,22.20
2022-11-04T18:58:38.545Z,26.37
2022-11-04T19:01:07.491Z,27.47
2022-11-04T19:03:35.749Z,29.53
2022-11-04T19:06:07.051Z,23.77
2022-11-04T19:08:35.142Z,26.07
2022-11-04T19:11:03.039Z,30.23
2022-11-04T19:13:30.526Z,26.33
2022-11-04T19:16:04.192Z,26.27
2022-11-04T19:18:31.739Z,28.83
2022-11-04T19:21:03.379Z,28.10
2022-11-04T19:23:31.514Z,30.03
2022-11-04T19:26:02.160Z,24.57
2022-11-04T19:28:44.562Z,23.37
2022-11-04T19:31:19.909Z,26.73
2022-11-04T19:33:47.845Z,34.97
2022-11-04T19:36:16.418Z,25.67
2022-11-04T19:38:43.871Z,33.23
2022-11-04T19:41:16.084Z,26.77
2022-11-04T19:43:43.566Z,27.83
2022-11-04T19:46:10.997Z,25.30
2022-11-04T19:48:38.561Z,25.87
2022-11-04T19:51:06.114Z,24.70
2022-11-04T19:53:33.610Z,26.50
2022-11-04T19:56:01.073Z,25.33
2022-11-04T19:58:28.638Z,27.63
2022-11-04T20:00:56.144Z,29.53
2022-11-04T20:03:23.651Z,27.10
2022-11-04T20:05:51.182Z,27.60
2022-11-04T20:08:18.703Z,23.40
2022-11-04T20:10:46.157Z,26.83
2022-11-04T20:13:18.343Z,27.53
2022-11-04T20:15:45.813Z,25.03
2022-11-04T20:18:13.383Z,24.03
2022-11-04T20:20:41.100Z,24.47
2022-11-04T20:23:08.538Z,25.13
2022-11-04T20:25:36.070Z,24.30
2022-11-04T20:28:04.897Z,20.13
2022-11-04T20:30:32.472Z,22.30
2022-11-04T20:32:59.940Z,21.13
2022-11-04T20:35:27.473Z,18.53
2022-11-04T20:37:54.941Z,16.53
2022-11-04T20:40:22.650Z,20.87
2022-11-04T20:42:50.301Z,17.80
2022-11-04T20:45:18.533Z,21.07
2022-11-04T20:47:46.258Z,25.57
2022-11-04T20:50:13.815Z,18.97
2022-11-04T20:52:41.284Z,17.83
2022-11-04T20:55:09.153Z,20.97
2022-11-04T20:57:36.672Z,19.23
2022-11-04T21:00:04.991Z,19.73
2022-11-04T21:02:32.545Z,17.67
2022-11-04T21:05:08.931Z,12.67
2022-11-04T21:07:36.409Z,15.83
2022-11-04T21:10:03.986Z,18.87
2022-11-04T21:12:31.424Z,13.57
2022-11-04T21:14:58.913Z,16.43
2022-11-04T21:17:26.367Z,15.50
2022-11-04T21:19:53.855Z,20.00
2022-11-04T21:22:21.326Z,16.27
2022-11-04T21:24:48.824Z,15.70
2022-11-04T21:27:16.273Z,18.77
2022-11-04T21:29:43.806Z,18.03
2022-11-04T21:32:11.322Z,14.23
2022-11-04T21:34:38.954Z,16.40
2022-11-04T21:37:06.414Z,14.30
2022-11-04T21:39:33.883Z,19.50
2022-11-04T21:42:01.359Z,15.93
2022-11-04T21:44:28.918Z,17.03
2022-11-04T21:46:56.429Z,17.83
2022-11-04T21:49:23.954Z,13.27
2022-11-04T21:51:51.427Z,16.20
2022-11-04T21:54:18.966Z,11.43
2022-11-04T21:56:46.430Z,15.67
2022-11-04T21:59:18.181Z,21.17
2022-11-04T22:01:46.284Z,13.97
2022-11-04T22:04:13.882Z,18.63
2022-11-04T22:06:41.406Z,14.03
2022-11-04T22:09:09.971Z,15.33
2022-11-04T22:11:37.506Z,16.47
2022-11-04T22:14:05.838Z,16.27
2022-11-04T22:16:34.398Z,14.23
2022-11-04T22:19:03.584Z,20.73
2022-11-04T22:21:31.528Z,14.80
2022-11-04T22:23:59.127Z,17.43
2022-11-04T22:26:28.490Z,15.43
2022-11-04T22:28:56.442Z,15.70
2022-11-04T22:31:23.891Z,15.03
2022-11-04T22:33:51.851Z,15.70
2022-11-04T22:36:19.357Z,14.90
2022-11-04T22:38:46.907Z,14.17
2022-11-04T22:41:16.267Z,14.87
2022-11-04T22:43:43.729Z,14.20
2022-11-04T22:46:18.690Z,16.97
2022-11-04T22:48:46.206Z,13.80
2022-11-04T22:51:13.957Z,15.23
2022-11-04T22:53:41.700Z,14.67
2022-11-04T22:56:10.137Z,17.43
2022-11-04T22:58:37.993Z,14.23
2022-11-04T23:01:09.845Z,19.13
2022-11-04T23:03:37.532Z,16.00
2022-11-04T23:06:05.533Z,17.97
2022-11-04T23:08:33.883Z,18.47
2022-11-04T23:11:03.113Z,19.47
2022-11-04T23:13:30.740Z,19.20
2022-11-04T23:16:01.295Z,15.03
2022-11-04T23:18:28.825Z,16.40
2022-11-04T23:20:56.295Z,17.23
2022-11-04T23:23:23.763Z,18.20
2022-11-04T23:25:51.218Z,16.27
2022-11-04T23:28:18.792Z,15.40
2022-11-04T23:30:47.219Z,16.87
2022-11-04T23:33:15.572Z,20.77
2022-11-04T23:35:44.702Z,16.93
2022-11-04T23:38:12.406Z,19.27
2022-11-04T23:40:39.900Z,17.63
2022-11-04T23:43:07.551Z,20.67
2022-11-04T23:45:35.259Z,18.87
2022-11-04T23:48:02.807Z,16.37
2022-11-04T23:50:34.841Z,19.23
2022-11-04T23:53:02.996Z,19.00
2022-11-04T23:55:30.475Z,19.77
2022-11-04T23:57:58.018Z,17.57
